Time;durP1;ratioP1;P1;durP2;ratioP2;P2;SDS_P1;SDS_P2;PMS_P1;PMS_P2;Temp;Humidity;BMP_temperature;BMP_pressure;BME280_temperature;BME280_humidity;BME280_pressure;Samples;Min_cycle;Max_cycle;Signal;HPM_P1;HPM_P2
2022/03/05 00:00:31;;;;;;;21.27;9.52;;;;;;;0.23;72.61;100150.69;12175606;19;20030;-80
2022/03/05 00:04:32;;;;;;;28.25;9.93;;;;;;;0.19;71.73;100152.94;12203499;19;19998;-80
2022/03/05 00:08:34;;;;;;;22.92;10.05;;;;;;;0.11;72.62;100142.09;12204238;19;20011;-79
2022/03/05 00:12:36;;;;;;;24.20;9.27;;;;;;;0.07;73.96;100150.78;12186020;19;20025;-80
2022/03/05 00:16:37;;;;;;;19.05;8.25;;;;;;;0.03;73.72;100150.28;12220178;19;20011;-80
2022/03/05 00:20:39;;;;;;;22.95;9.38;;;;;;;0.02;73.67;100153.97;12223762;19;20015;-79
2022/03/05 00:24:41;;;;;;;18.13;8.98;;;;;;;-0.01;74.18;100148.91;12187884;19;20090;-80
2022/03/05 00:28:44;;;;;;;22.52;9.68;;;;;;;-0.02;74.31;100147.22;12203172;19;20034;-79
2022/03/05 00:32:48;;;;;;;23.05;8.75;;;;;;;-0.05;74.74;100144.88;12207263;19;20070;-80
2022/03/05 00:36:50;;;;;;;22.35;8.95;;;;;;;-0.08;74.40;100146.06;12177638;19;20002;-79
2022/03/05 00:40:52;;;;;;;21.52;9.45;;;;;;;-0.12;76.02;100143.84;12194014;19;20119;-79
2022/03/05 00:44:53;;;;;;;26.50;10.07;;;;;;;-0.09;76.34;100144.38;12196994;19;20070;-80
2022/03/05 00:48:55;;;;;;;23.02;8.75;;;;;;;-0.10;76.05;100142.66;12179821;19;20078;-79
2022/03/05 00:52:57;;;;;;;25.58;10.02;;;;;;;-0.10;75.96;100142.66;12205106;19;20092;-79
2022/03/05 00:56:59;;;;;;;22.73;9.23;;;;;;;-0.09;76.14;100143.50;12207139;19;20074;-79
2022/03/05 01:01:00;;;;;;;26.17;9.98;;;;;;;-0.10;76.00;100148.09;12182918;19;20066;-79
2022/03/05 01:05:03;;;;;;;26.00;10.53;;;;;;;-0.13;75.25;100156.56;12196221;19;20014;-79
2022/03/05 01:09:05;;;;;;;21.50;9.30;;;;;;;-0.18;75.85;100145.38;12202829;19;20683;-79
2022/03/05 01:13:06;;;;;;;21.83;9.90;;;;;;;-0.25;76.47;100147.94;12184141;19;20026;-78
2022/03/05 01:17:08;;;;;;;25.98;10.00;;;;;;;-0.23;76.12;100139.66;12192235;19;20143;-79
2022/03/05 01:21:10;;;;;;;23.42;8.80;;;;;;;-0.27;77.09;100130.16;12199515;19;20010;-79
2022/03/05 01:25:11;;;;;;;21.48;8.63;;;;;;;-0.25;77.56;100126.28;12172560;19;20034;-79
2022/03/05 01:29:14;;;;;;;23.13;9.95;;;;;;;-0.25;76.90;100131.69;12196281;19;20582;-79
2022/03/05 01:33:17;;;;;;;25.77;9.63;;;;;;;-0.31;77.02;100126.97;12189316;19;20006;-79
2022/03/05 01:37:19;;;;;;;24.58;10.75;;;;;;;-0.38;78.10;100130.56;12178508;19;20546;-79
2022/03/05 01:41:22;;;;;;;18.98;9.80;;;;;;;-0.39;78.16;100132.38;12195351;19;20003;-79
2022/03/05 01:45:25;;;;;;;22.33;10.20;;;;;;;-0.41;77.67;100126.31;12168759;19;20358;-79
2022/03/05 01:49:27;;;;;;;23.35;9.32;;;;;;;-0.42;77.89;100119.19;12187134;19;20078;-80
2022/03/05 01:53:28;;;;;;;23.20;10.27;;;;;;;-0.47;78.86;100119.72;12204052;19;20014;-80
2022/03/05 01:57:30;;;;;;;23.75;9.93;;;;;;;-0.47;78.66;100125.13;12181986;19;20154;-79
2022/03/05 02:01:32;;;;;;;27.05;9.82;;;;;;;-0.51;77.89;100131.88;12201109;19;20035;-79
2022/03/05 02:05:34;;;;;;;20.83;8.88;;;;;;;-0.53;79.05;100125.81;12204704;19;20003;-79
2022/03/05 02:09:36;;;;;;;25.58;10.18;;;;;;;-0.49;78.11;100134.44;12173895;19;20568;-81
2022/03/05 02:13:37;;;;;;;25.07;10.53;;;;;;;-0.49;78.10;100129.88;12204024;19;20654;-80
2022/03/05 02:17:39;;;;;;;24.10;10.03;;;;;;;-0.51;79.89;100134.59;12203626;19;20805;-80
2022/03/05 02:21:45;;;;;;;24.00;9.63;;;;;;;-0.50;77.76;100136.31;12177764;19;21723;-79
2022/03/05 02:25:55;;;;;;;20.55;9.38;;;;;;;-0.51;79.41;100129.19;12210636;19;20011;-80
2022/03/05 02:29:58;;;;;;;25.75;10.02;;;;;;;-0.52;78.42;100129.38;12205416;19;20027;-79
2022/03/05 02:34:00;;;;;;;32.60;11.25;;;;;;;-0.57;79.14;100135.28;12192171;19;20061;-80
2022/03/05 02:38:02;;;;;;;25.83;11.07;;;;;;;-0.57;79.39;100140.69;12207652;19;20019;-78
2022/03/05 02:42:04;;;;;;;28.48;10.20;;;;;;;-0.56;77.71;100142.41;12238519;19;20653;-79
2022/03/05 02:46:05;;;;;;;23.50;9.82;;;;;;;-0.61;77.43;100146.63;12235927;19;20003;-79
2022/03/05 02:50:08;;;;;;;26.85;11.10;;;;;;;-0.71;77.41;100147.66;12254066;19;20003;-79
2022/03/05 02:54:09;;;;;;;26.15;11.07;;;;;;;-0.77;77.28;100148.31;12245331;19;20007;-78
2022/03/05 02:58:11;;;;;;;24.95;10.25;;;;;;;-0.84;77.92;100151.84;12209928;19;20014;-78
2022/03/05 03:02:13;;;;;;;21.40;9.30;;;;;;;-0.93;78.01;100156.41;12209791;19;20074;-79
2022/03/05 03:06:15;;;;;;;33.05;12.57;;;;;;;-1.00;77.72;100153.53;12212309;19;20006;-79
2022/03/05 03:10:17;;;;;;;27.27;10.50;;;;;;;-1.11;77.99;100161.13;12188016;19;19999;-80
2022/03/05 03:14:19;;;;;;;25.23;10.43;;;;;;;-1.25;78.94;100163.47;12206771;19;20039;-79
2022/03/05 03:18:21;;;;;;;27.77;10.90;;;;;;;-1.33;80.43;100160.72;12185352;19;20028;-79
2022/03/05 03:22:25;;;;;;;26.42;10.98;;;;;;;-1.43;80.54;100152.75;12202995;19;20028;-79
2022/03/05 03:26:26;;;;;;;28.75;11.27;;;;;;;-1.48;79.86;100165.91;12206127;19;20026;-79
2022/03/05 03:30:28;;;;;;;23.70;9.57;;;;;;;-1.51;79.73;100170.81;12192133;19;20008;-79
2022/03/05 03:34:31;;;;;;;27.60;10.43;;;;;;;-1.58;80.81;100175.16;12201178;19;20139;-78
2022/03/05 03:38:33;;;;;;;23.60;10.33;;;;;;;-1.63;81.21;100178.34;12211188;19;20006;-79
2022/03/05 03:42:35;;;;;;;26.38;11.10;;;;;;;-1.67;80.96;100171.56;12179392;19;20007;-79
2022/03/05 03:46:36;;;;;;;26.40;9.27;;;;;;;-1.70;81.37;100193.50;12201774;19;20094;-79
2022/03/05 03:50:39;;;;;;;24.52;9.95;;;;;;;-1.75;81.06;100185.06;12207243;19;19998;-79
2022/03/05 03:54:42;;;;;;;25.17;10.05;;;;;;;-1.78;81.57;100188.91;12179347;19;20004;-78
2022/03/05 03:58:44;;;;;;;27.38;10.63;;;;;;;-1.83;81.75;100178.59;12198803;19;20013;-79
2022/03/05 04:02:46;;;;;;;24.50;10.90;;;;;;;-1.86;82.15;100178.06;12202799;19;20027;-79
2022/03/05 04:11:09;;;;;;;25.20;11.15;;;;;;;-1.88;81.68;100180.91;12204419;19;20006;-79
2022/03/05 04:15:11;;;;;;;22.23;10.27;;;;;;;-1.88;81.62;100185.47;12206090;19;20023;-79
2022/03/05 04:19:12;;;;;;;23.80;10.07;;;;;;;-1.89;81.58;100189.19;12182717;19;20023;-79
2022/03/05 04:23:14;;;;;;;24.15;10.85;;;;;;;-1.91;81.89;100183.94;12207534;19;20098;-80
2022/03/05 04:27:17;;;;;;;26.75;9.90;;;;;;;-1.94;81.64;100183.41;12207639;19;19998;-80
2022/03/05 04:31:20;;;;;;;27.83;11.20;;;;;;;-1.97;82.12;100184.56;12186104;19;20006;-79
2022/03/05 04:35:22;;;;;;;28.40;10.05;;;;;;;-1.98;82.53;100182.91;12206205;19;20031;-79
2022/03/05 04:39:24;;;;;;;29.95;11.15;;;;;;;-2.01;82.29;100185.91;12186273;19;20021;-80
2022/03/05 04:43:26;;;;;;;25.73;11.05;;;;;;;-2.03;82.61;100184.38;12202418;19;20013;-80
2022/03/05 04:47:28;;;;;;;27.88;10.38;;;;;;;-2.08;82.29;100192.97;12206487;19;20742;-79
2022/03/05 04:51:29;;;;;;;24.73;9.53;;;;;;;-2.13;82.38;100187.19;12186298;19;20429;-80
2022/03/05 04:55:31;;;;;;;30.85;11.30;;;;;;;-2.13;82.52;100192.59;12197088;19;20177;-80
2022/03/05 04:59:33;;;;;;;25.08;11.20;;;;;;;-2.16;82.87;100190.22;12200328;19;20078;-80
2022/03/05 05:03:34;;;;;;;32.30;11.27;;;;;;;-2.23;82.43;100192.69;12184509;19;20023;-79
2022/03/05 05:07:37;;;;;;;27.75;11.82;;;;;;;-2.25;82.78;100197.41;12208800;19;20013;-78
2022/03/05 05:11:39;;;;;;;27.30;11.75;;;;;;;-2.24;82.95;100203.63;12206013;19;20086;-78
2022/03/05 05:15:40;;;;;;;31.88;11.07;;;;;;;-2.24;83.09;100203.63;12173069;19;20416;-78
2022/03/05 05:19:42;;;;;;;34.13;12.27;;;;;;;-2.22;82.98;100197.09;12202623;19;20011;-78
2022/03/05 05:23:44;;;;;;;34.00;13.40;;;;;;;-2.22;83.23;100205.19;12192877;19;20062;-78
2022/03/05 05:27:45;;;;;;;29.90;11.45;;;;;;;-2.18;83.26;100205.72;12168149;19;20013;-79
2022/03/05 05:31:48;;;;;;;29.55;12.18;;;;;;;-2.17;83.51;100212.78;12195533;19;20013;-78
2022/03/05 05:35:49;;;;;;;26.58;11.40;;;;;;;-2.16;83.63;100209.94;12201295;19;20066;-79
2022/03/05 05:39:51;;;;;;;24.75;11.40;;;;;;;-2.14;83.73;100209.78;12175006;19;20011;-79
2022/03/05 05:43:57;;;;;;;27.02;12.23;;;;;;;-2.12;83.54;100216.72;12191984;19;20010;-79
2022/03/05 05:47:59;;;;;;;31.23;12.13;;;;;;;-2.10;83.78;100219.28;12194434;19;20066;-79
2022/03/05 05:52:02;;;;;;;27.45;11.27;;;;;;;-2.09;83.72;100216.41;12176131;19;20110;-78
2022/03/05 05:56:03;;;;;;;28.80;12.68;;;;;;;-2.07;83.72;100213.56;12202387;19;20544;-80
2022/03/05 06:00:06;;;;;;;28.63;11.83;;;;;;;-2.06;83.65;100217.94;12214322;19;20019;-79
2022/03/05 06:04:17;;;;;;;25.48;11.60;;;;;;;-2.07;83.99;100218.97;12180813;19;20013;-79
2022/03/05 06:08:19;;;;;;;31.53;11.70;;;;;;;-2.07;84.19;100224.34;12208207;19;20030;-79
2022/03/05 06:12:23;;;;;;;29.92;11.68;;;;;;;-2.05;83.85;100233.16;12195492;19;20074;-79
2022/03/05 06:16:24;;;;;;;35.08;12.40;;;;;;;-2.02;83.85;100238.25;12211861;19;20082;-79
2022/03/05 06:20:27;;;;;;;25.38;11.35;;;;;;;-1.98;83.88;100245.00;12203750;19;20477;-79
2022/03/05 06:24:29;;;;;;;34.60;13.07;;;;;;;-1.89;84.12;100256.72;12193134;19;20027;-79
2022/03/05 06:28:31;;;;;;;26.00;11.10;;;;;;;-1.80;84.26;100246.81;12212229;19;20068;-79
2022/03/05 06:32:32;;;;;;;32.73;12.57;;;;;;;-1.77;84.22;100249.19;12208679;19;20013;-80
2022/03/05 06:36:34;;;;;;;29.83;11.60;;;;;;;-1.74;84.03;100251.59;12168072;19;20331;-80
2022/03/05 06:40:36;;;;;;;24.60;10.70;;;;;;;-1.75;84.12;100256.16;12217737;19;20010;-79
2022/03/05 06:44:38;;;;;;;30.88;12.68;;;;;;;-1.81;84.90;100258.59;12213827;19;20722;-80
2022/03/05 06:48:40;;;;;;;27.57;11.80;;;;;;;-1.86;84.83;100264.50;12187458;19;20023;-80
2022/03/05 06:52:41;;;;;;;33.90;14.45;;;;;;;-1.86;84.19;100259.09;12205045;19;20011;-79
2022/03/05 06:56:43;;;;;;;34.58;12.82;;;;;;;-1.88;84.87;100253.84;12204838;19;20030;-79
2022/03/05 07:00:45;;;;;;;38.83;12.95;;;;;;;-1.82;84.26;100260.47;12182964;19;20022;-79
2022/03/05 07:04:48;;;;;;;28.92;11.73;;;;;;;-1.77;85.09;100263.56;12210278;19;20010;-80
2022/03/05 07:08:49;;;;;;;31.15;12.02;;;;;;;-1.68;84.94;100261.75;12206557;19;20070;-80
2022/03/05 07:12:51;;;;;;;31.73;11.80;;;;;;;-1.57;84.16;100271.44;12195254;19;20123;-80
2022/03/05 07:16:54;;;;;;;27.88;11.30;;;;;;;-1.45;84.06;100273.72;12210413;19;20002;-79
2022/03/05 07:20:57;;;;;;;33.53;12.48;;;;;;;-1.34;83.57;100274.41;12212349;19;20010;-79
2022/03/05 07:24:59;;;;;;;31.92;13.63;;;;;;;-1.19;83.03;100279.06;12172674;19;20010;-79
2022/03/05 07:29:00;;;;;;;36.00;12.13;;;;;;;-1.05;83.06;100277.59;12199558;19;20079;-79
2022/03/05 07:33:02;;;;;;;28.30;12.63;;;;;;;-0.83;82.27;100272.59;12206498;19;20017;-79
2022/03/05 07:37:04;;;;;;;32.00;12.77;;;;;;;-0.64;82.51;100277.72;12177239;19;20031;-80
2022/03/05 07:41:06;;;;;;;31.67;12.82;;;;;;;-0.49;82.34;100286.03;12204274;19;20118;-79
2022/03/05 07:45:08;;;;;;;29.50;12.30;;;;;;;-0.33;81.36;100287.91;12191026;19;20074;-80
2022/03/05 07:49:10;;;;;;;33.58;14.18;;;;;;;-0.18;81.38;100290.81;12178224;19;20020;-79
2022/03/05 07:53:12;;;;;;;29.40;13.38;;;;;;;-0.05;81.29;100283.88;12202951;19;20086;-80
2022/03/05 07:57:14;;;;;;;30.13;11.90;;;;;;;0.25;80.14;100280.66;12196961;19;20062;-79
2022/03/05 08:01:16;;;;;;;26.40;12.75;;;;;;;0.51;79.78;100292.13;12173488;19;20078;-80
2022/03/05 08:05:19;;;;;;;29.60;12.60;;;;;;;0.81;78.81;100293.22;12201602;19;20394;-79
2022/03/05 08:09:21;;;;;;;32.03;14.77;;;;;;;1.06;77.51;100293.13;12178139;19;20263;-80
2022/03/05 08:13:22;;;;;;;29.80;13.35;;;;;;;1.28;76.99;100303.19;12206538;19;21228;-80
2022/03/05 08:17:25;;;;;;;27.92;12.27;;;;;;;1.57;76.19;100309.81;12201560;19;20018;-80
2022/03/05 08:21:27;;;;;;;27.37;12.67;;;;;;;1.83;75.04;100307.59;12180533;19;20020;-80
2022/03/05 08:25:29;;;;;;;31.92;14.02;;;;;;;2.10;74.10;100307.22;12198872;19;20002;-80
2022/03/05 08:29:31;;;;;;;24.67;11.70;;;;;;;2.33;73.05;100310.78;12200358;19;20011;-80
2022/03/05 08:33:32;;;;;;;24.83;11.70;;;;;;;2.60;72.76;100308.47;12184633;19;20078;-80
2022/03/05 08:37:35;;;;;;;29.67;12.23;;;;;;;2.86;71.16;100308.88;12202733;19;20086;-80
2022/03/05 08:41:37;;;;;;;27.27;10.88;;;;;;;3.06;69.88;100311.84;12201153;19;20132;-81
2022/03/05 08:45:39;;;;;;;23.10;11.38;;;;;;;3.33;67.41;100314.91;12178866;19;20027;-81
2022/03/05 08:49:41;;;;;;;24.25;11.25;;;;;;;3.37;65.23;100314.34;12202293;19;20350;-82
2022/03/05 08:53:44;;;;;;;23.27;12.02;;;;;;;3.66;66.91;100309.88;12192199;19;20002;-81
2022/03/05 08:57:45;;;;;;;24.85;12.07;;;;;;;3.92;65.60;100312.03;12173010;19;20368;-81
2022/03/05 09:01:47;;;;;;;28.08;12.55;;;;;;;4.06;63.95;100310.28;12235719;19;20006;-81
2022/03/05 09:05:49;;;;;;;26.27;11.77;;;;;;;4.27;62.92;100298.50;12237793;19;20025;-80
2022/03/05 09:09:51;;;;;;;25.40;10.98;;;;;;;4.55;62.24;100299.38;12174629;19;20013;-80
2022/03/05 09:13:52;;;;;;;26.77;12.30;;;;;;;4.67;60.01;100301.53;12203953;19;20007;-81
2022/03/05 09:17:54;;;;;;;27.95;11.80;;;;;;;4.91;60.00;100306.56;12196139;19;20002;-80
2022/03/05 09:21:56;;;;;;;22.08;11.48;;;;;;;5.10;59.44;100298.66;12180195;19;20045;-80
2022/03/05 09:25:57;;;;;;;27.15;13.52;;;;;;;5.19;58.77;100295.56;12188498;19;20019;-81
2022/03/05 09:29:59;;;;;;;26.90;12.15;;;;;;;5.35;58.09;100290.78;12198081;19;20108;-81
2022/03/05 09:34:01;;;;;;;24.95;11.60;;;;;;;5.53;56.34;100292.94;12179804;19;20824;-81
2022/03/05 09:38:02;;;;;;;24.67;10.65;;;;;;;5.66;55.20;100290.28;12204573;19;20081;-81
2022/03/05 09:42:05;;;;;;;22.80;11.47;;;;;;;5.85;55.16;100288.63;12194213;19;20002;-82
2022/03/05 09:46:07;;;;;;;24.02;12.18;;;;;;;5.97;55.89;100302.56;12179777;19;20097;-81
2022/03/05 09:50:09;;;;;;;23.80;10.20;;;;;;;6.16;55.05;100288.09;12197324;19;20633;-81
2022/03/05 09:54:12;;;;;;;25.17;11.60;;;;;;;6.38;53.50;100300.50;12193672;19;20007;-81
2022/03/05 09:58:13;;;;;;;21.27;9.90;;;;;;;6.48;51.67;100288.28;12176045;19;20021;-81
2022/03/05 10:02:17;;;;;;;22.17;11.35;;;;;;;6.44;49.32;100285.13;12200106;19;20037;-81
2022/03/05 10:06:20;;;;;;;24.23;11.18;;;;;;;6.45;50.25;100285.97;12199923;19;20011;-81
2022/03/05 10:10:22;;;;;;;20.25;11.15;;;;;;;6.55;49.61;100283.66;12179959;19;20006;-81
2022/03/05 10:14:24;;;;;;;16.03;10.27;;;;;;;6.76;50.49;100285.31;12202808;19;20038;-81
2022/03/05 10:18:26;;;;;;;22.10;10.32;;;;;;;6.72;47.77;100284.03;12181442;19;20027;-82
2022/03/05 10:22:28;;;;;;;17.53;9.60;;;;;;;6.92;48.91;100278.53;12193164;19;20027;-81
2022/03/05 10:26:52;;;;;;;20.37;10.43;;;;;;;7.13;47.71;100280.16;12192557;19;20807;-81
2022/03/05 10:31:07;;;;;;;23.98;11.40;;;;;;;7.14;48.49;100276.34;12175113;19;20444;-82
2022/03/05 10:35:11;;;;;;;18.45;9.38;;;;;;;7.22;47.19;100276.94;12201963;19;20118;-82
2022/03/05 10:39:24;;;;;;;20.98;9.93;;;;;;;7.38;46.85;100274.81;12195595;19;20017;-81
2022/03/05 10:43:28;;;;;;;21.45;10.13;;;;;;;7.46;46.30;100267.16;12183429;19;20027;-83
2022/03/05 10:47:42;;;;;;;15.43;7.90;;;;;;;7.56;45.02;100263.13;12207371;19;20378;-83
2022/03/05 10:51:45;;;;;;;;;;;;;;;7.58;43.49;100272.78;12191458;19;20089;-82
2022/03/05 10:55:47;;;;;;;12.43;6.47;;;;;;;7.64;43.61;100268.31;12208135;19;20341;-82
2022/03/05 10:59:55;;;;;;;11.90;6.63;;;;;;;7.34;42.65;100266.16;12207597;19;20014;-82
2022/03/05 11:03:58;;;;;;;9.90;5.40;;;;;;;7.34;41.74;100257.94;12200070;19;20089;-82
2022/03/05 11:08:00;;;;;;;13.93;6.90;;;;;;;7.67;42.36;100265.13;12208491;19;20094;-82
2022/03/05 11:12:02;;;;;;;13.60;7.27;;;;;;;7.90;41.41;100256.34;12220123;19;20066;-82
2022/03/05 11:16:04;;;;;;;12.57;6.65;;;;;;;7.86;40.30;100252.38;12179501;19;20784;-82
2022/03/05 11:20:06;;;;;;;9.90;5.10;;;;;;;8.05;38.42;100264.28;12209112;19;20010;-82
2022/03/05 11:24:14;;;;;;;7.80;4.50;;;;;;;7.82;40.15;100256.63;12216580;19;20006;-82
2022/03/05 11:28:19;;;;;;;10.20;5.30;;;;;;;7.95;40.29;100254.63;12202112;19;20006;-82
2022/03/05 11:32:29;;;;;;;11.05;6.03;;;;;;;8.16;37.76;100236.13;12218073;19;20703;-82
2022/03/05 11:36:36;;;;;;;8.82;5.18;;;;;;;8.39;38.34;100241.84;12190509;19;20014;-82
2022/03/05 11:40:41;;;;;;;12.90;5.60;;;;;;;8.67;38.08;100227.63;12229013;19;20014;-83
2022/03/05 11:44:44;;;;;;;10.80;5.85;;;;;;;8.85;38.43;100234.22;12222630;19;20027;-82
2022/03/05 11:49:01;;;;;;;8.82;4.63;;;;;;;8.87;35.93;100235.66;12182546;19;20021;-81
2022/03/05 11:53:05;;;;;;;9.00;4.82;;;;;;;9.56;36.99;100230.78;12215925;19;20010;-82
2022/03/05 11:57:14;;;;;;;10.48;6.13;;;;;;;9.94;36.76;100229.59;12210865;19;20031;-83
2022/03/05 12:01:32;;;;;;;13.30;7.50;;;;;;;10.23;35.88;100221.50;12192890;19;20019;-82
2022/03/05 12:05:37;;;;;;;11.07;6.03;;;;;;;10.70;35.75;100221.56;12210385;19;20021;-84
2022/03/05 12:09:53;;;;;;;12.68;6.65;;;;;;;11.16;35.14;100217.88;12186875;19;20030;-82
2022/03/05 12:13:58;;;;;;;12.05;6.75;;;;;;;10.65;34.38;100222.28;12216630;19;20375;-80
2022/03/05 12:18:00;;;;;;;10.05;6.28;;;;;;;10.63;34.90;100218.09;12218717;19;20006;-83
2022/03/05 12:22:14;;;;;;;10.27;6.35;;;;;;;10.70;34.24;100214.13;12187676;19;20098;-83
2022/03/05 12:26:18;;;;;;;10.63;6.28;;;;;;;10.98;35.30;100207.03;12201523;19;20383;-83
2022/03/05 12:30:24;;;;;;;10.38;6.00;;;;;;;11.22;33.48;100216.06;12184610;19;20002;-83
2022/03/05 12:34:34;;;;;;;9.93;5.97;;;;;;;11.00;32.56;100202.09;12200184;19;20009;-83
2022/03/05 12:38:37;;;;;;;9.60;6.00;;;;;;;10.67;32.13;100203.56;12213594;19;20018;-82
2022/03/05 12:42:38;;;;;;;10.50;6.22;;;;;;;11.27;31.86;100202.38;12186603;19;20019;-83
2022/03/05 12:46:42;;;;;;;10.57;6.95;;;;;;;11.96;31.71;100199.59;12213303;19;20014;-83
2022/03/05 12:50:51;;;;;;;12.65;5.95;;;;;;;12.70;32.00;100198.50;12212461;19;20010;-81
2022/03/05 12:54:54;;;;;;;10.13;6.43;;;;;;;12.53;31.31;100182.81;12184556;19;20354;-80
2022/03/05 12:58:57;;;;;;;10.75;6.70;;;;;;;12.82;30.75;100181.81;12205449;19;20078;-80
2022/03/05 13:03:00;;;;;;;9.85;5.95;;;;;;;11.67;30.87;100173.91;12211532;19;20030;-80
2022/03/05 13:07:02;;;;;;;9.68;6.03;;;;;;;10.85;31.79;100176.94;12199546;19;20017;-81
2022/03/05 13:11:15;;;;;;;10.98;6.32;;;;;;;11.59;31.82;100179.81;12226246;19;20010;-82
2022/03/05 13:15:27;;;;;;;11.32;6.35;;;;;;;12.57;30.07;100169.31;12215518;19;20007;-83
2022/03/05 13:19:30;;;;;;;10.48;6.25;;;;;;;12.67;29.21;100174.13;12191062;19;20011;-84
2022/03/05 13:23:38;;;;;;;12.50;6.40;;;;;;;12.87;29.58;100165.28;12177557;19;20006;-81
2022/03/05 13:27:42;;;;;;;9.95;6.07;;;;;;;11.95;30.18;100164.75;12187928;19;20654;-84
2022/03/05 13:31:44;;;;;;;9.88;6.13;;;;;;;11.02;30.51;100171.53;12214600;19;20007;-84
2022/03/05 13:35:46;;;;;;;10.27;6.03;;;;;;;10.46;31.04;100174.72;12209118;19;20066;-83
2022/03/05 13:39:47;;;;;;;8.55;6.07;;;;;;;10.52;31.47;100159.13;12188413;19;20027;-84
2022/03/05 13:43:49;;;;;;;12.23;7.28;;;;;;;10.61;32.10;100173.38;12203436;19;20068;-83
2022/03/05 13:47:53;;;;;;;9.60;6.03;;;;;;;10.59;30.93;100170.03;12254809;19;20532;-82
2022/03/05 13:52:00;;;;;;;9.95;5.72;;;;;;;10.54;31.48;100162.50;12225059;19;20362;-82
2022/03/05 13:56:03;;;;;;;13.18;6.13;;;;;;;10.10;32.14;100169.41;12252660;19;20042;-81
2022/03/05 14:00:11;;;;;;;11.68;6.47;;;;;;;9.88;32.88;100166.41;12241056;19;20021;-82
2022/03/05 14:04:20;;;;;;;12.60;6.95;;;;;;;9.43;33.57;100164.97;12212319;19;20011;-81
2022/03/05 14:08:22;;;;;;;9.77;5.65;;;;;;;9.03;34.02;100157.25;12224427;19;20007;-82
2022/03/05 14:12:26;;;;;;;14.23;5.72;;;;;;;8.59;34.74;100164.75;12198634;19;20063;-82
2022/03/05 14:16:38;;;;;;;12.07;6.38;;;;;;;8.41;35.32;100156.50;12220105;19;20015;-81
2022/03/05 14:20:45;;;;;;;13.07;6.77;;;;;;;8.43;35.04;100160.69;12242409;19;20017;-82
2022/03/05 14:24:54;;;;;;;14.10;6.63;;;;;;;8.50;35.38;100159.78;12214821;19;20006;-81
2022/03/05 14:28:56;;;;;;;11.93;6.72;;;;;;;8.51;35.24;100156.81;12232199;19;20006;-81
2022/03/05 14:32:59;;;;;;;10.45;5.93;;;;;;;8.40;35.42;100149.31;12214528;19;20007;-82
2022/03/05 14:37:03;;;;;;;11.00;5.97;;;;;;;8.17;35.51;100156.25;12189677;19;20010;-81
2022/03/05 14:41:05;;;;;;;11.65;5.72;;;;;;;8.09;36.01;100150.22;12212143;19;20025;-83
2022/03/05 14:45:09;;;;;;;12.32;6.88;;;;;;;7.82;36.32;100152.34;12210210;19;20366;-83
2022/03/05 14:49:10;;;;;;;11.55;6.05;;;;;;;8.12;36.31;100150.63;12189811;19;20102;-82
2022/03/05 14:53:12;;;;;;;12.77;6.50;;;;;;;8.50;36.20;100149.63;12216537;19;20017;-81
2022/03/05 14:57:14;;;;;;;12.17;5.97;;;;;;;8.72;35.93;100146.44;12221897;19;20035;-82
2022/03/05 15:01:19;;;;;;;14.88;6.97;;;;;;;8.73;35.62;100159.94;12192302;19;20006;-82
2022/03/05 15:05:25;;;;;;;13.25;7.28;;;;;;;8.93;35.33;100150.63;12205276;19;20010;-82
2022/03/05 15:09:29;;;;;;;;;;;;;;;9.08;34.93;100143.66;12184383;19;20022;-80
2022/03/05 15:13:31;;;;;;;9.93;6.03;;;;;;;9.53;34.59;100156.97;12214958;19;19918;-82
2022/03/05 15:17:35;;;;;;;11.50;6.57;;;;;;;10.09;33.96;100151.22;12203441;19;20002;-81
2022/03/05 15:21:37;;;;;;;12.93;6.47;;;;;;;10.21;34.19;100155.66;12185348;19;20003;-81
2022/03/05 15:25:38;;;;;;;11.57;7.00;;;;;;;9.90;33.60;100144.97;12201489;19;20092;-83
2022/03/05 15:29:40;;;;;;;13.25;6.30;;;;;;;10.19;34.13;100148.69;12198207;19;20322;-83
2022/03/05 15:33:43;;;;;;;12.70;6.20;;;;;;;10.21;33.96;100155.66;12187812;19;20061;-82
2022/03/05 15:37:52;;;;;;;12.30;6.68;;;;;;;9.85;34.18;100148.44;12206746;19;20014;-81
2022/03/05 15:41:54;;;;;;;9.52;5.85;;;;;;;9.35;34.54;100143.28;12213004;19;20010;-82
2022/03/05 15:45:56;;;;;;;18.40;6.30;;;;;;;8.97;35.52;100149.94;12178165;19;20014;-82
2022/03/05 15:49:57;;;;;;;18.40;7.03;;;;;;;8.87;35.61;100150.47;12205015;19;20003;-82
2022/03/05 15:53:59;;;;;;;12.93;6.05;;;;;;;8.40;35.72;100150.16;12203573;19;20014;-82
2022/03/05 15:58:01;;;;;;;11.70;6.03;;;;;;;7.95;35.96;100150.34;12187861;19;20381;-82
2022/03/05 16:02:03;;;;;;;12.35;6.80;;;;;;;7.76;36.51;100163.19;12208055;19;20472;-82
2022/03/05 16:06:06;;;;;;;10.77;5.88;;;;;;;7.59;36.86;100150.25;12197106;19;20011;-82
2022/03/05 16:10:09;;;;;;;12.40;5.77;;;;;;;7.34;37.09;100161.97;12188084;19;20077;-82
2022/03/05 16:14:11;;;;;;;12.13;5.35;;;;;;;7.14;37.12;100153.88;12209789;19;20069;-82
2022/03/05 16:18:12;;;;;;;11.80;5.80;;;;;;;7.00;37.71;100150.38;12208429;19;20069;-82
2022/03/05 16:22:14;;;;;;;11.75;6.05;;;;;;;6.87;37.94;100166.00;12184468;19;20015;-82
2022/03/05 16:26:26;;;;;;;11.70;5.47;;;;;;;6.66;37.90;100167.13;12202968;19;20002;-83
2022/03/05 16:30:29;;;;;;;11.10;5.68;;;;;;;6.52;38.16;100163.63;12182333;19;20014;-83
2022/03/05 16:34:31;;;;;;;;;;;;;;;6.41;38.34;100167.00;12208058;19;20013;-82
2022/03/05 16:38:36;;;;;;;10.23;5.25;;;;;;;6.18;38.33;100162.81;12207915;19;19918;-83
2022/03/05 16:42:37;;;;;;;11.70;6.03;;;;;;;6.08;38.98;100168.72;12185422;19;21429;-82
2022/03/05 16:46:39;;;;;;;10.35;5.10;;;;;;;5.88;39.35;100163.22;12202304;19;20030;-81
2022/03/05 16:50:41;;;;;;;10.75;4.95;;;;;;;5.72;39.31;100150.84;12205274;19;20053;-82
2022/03/05 16:54:43;;;;;;;11.05;5.70;;;;;;;5.56;39.44;100154.00;12181834;19;20480;-82
2022/03/05 16:58:45;;;;;;;15.32;7.10;;;;;;;5.35;39.90;100156.88;12206275;19;20670;-82
2022/03/05 17:02:46;;;;;;;11.27;5.60;;;;;;;5.16;40.46;100155.78;12200281;19;20002;-81
2022/03/05 17:06:48;;;;;;;13.52;5.88;;;;;;;4.97;40.74;100161.00;12185311;19;20015;-82
2022/03/05 17:10:50;;;;;;;23.98;11.30;;;;;;;4.74;41.41;100160.47;12209212;19;20019;-81
2022/03/05 17:14:52;;;;;;;20.15;9.90;;;;;;;4.49;42.26;100166.47;12198956;19;20396;-81
2022/03/05 17:18:53;;;;;;;12.95;6.78;;;;;;;4.24;42.47;100159.78;12183305;19;20014;-82
2022/03/05 17:22:55;;;;;;;11.60;5.22;;;;;;;3.99;43.14;100162.97;12201461;19;20385;-82
2022/03/05 17:26:57;;;;;;;11.70;5.32;;;;;;;3.76;43.53;100174.13;12195514;19;20085;-82
2022/03/05 17:30:59;;;;;;;10.25;4.75;;;;;;;3.55;44.00;100174.13;12181731;19;20086;-81
2022/03/05 17:35:01;;;;;;;8.53;3.90;;;;;;;3.35;44.42;100190.28;12206915;19;20009;-80
2022/03/05 17:39:04;;;;;;;10.00;5.38;;;;;;;3.17;44.91;100188.81;12212359;19;20508;-82
2022/03/05 17:43:06;;;;;;;16.60;5.28;;;;;;;3.01;44.87;100199.97;12179954;19;20178;-83
2022/03/05 17:47:07;;;;;;;10.43;4.97;;;;;;;2.85;45.00;100195.56;12198810;19;20011;-82
2022/03/05 17:51:09;;;;;;;9.90;4.88;;;;;;;2.70;45.29;100201.03;12193046;19;20023;-82
2022/03/05 17:55:13;;;;;;;10.65;5.28;;;;;;;2.55;45.69;100202.91;12183325;19;20414;-84
2022/03/05 17:59:21;;;;;;;13.75;5.53;;;;;;;2.39;45.76;100200.41;12211425;19;20047;-83
2022/03/05 18:03:26;;;;;;;11.98;5.13;;;;;;;2.26;45.86;100204.63;12187477;19;20066;-83
2022/03/05 18:07:28;;;;;;;;;;;;;;;2.16;46.19;100200.47;12221341;19;20030;-83
2022/03/05 18:11:30;;;;;;;10.60;5.18;;;;;;;2.06;46.39;100203.47;12211986;19;19906;-83
2022/03/05 18:15:33;;;;;;;8.15;4.65;;;;;;;1.96;46.64;100203.72;12198702;19;20014;-84
2022/03/05 18:19:35;;;;;;;10.93;5.25;;;;;;;1.87;46.63;100209.41;12218996;19;20007;-82
2022/03/05 18:23:37;;;;;;;6.78;3.20;;;;;;;1.78;47.08;100212.19;12223783;19;20007;-82
2022/03/05 18:27:39;;;;;;;8.80;4.57;;;;;;;1.73;47.08;100211.06;12210526;19;20003;-81
2022/03/05 18:31:41;;;;;;;12.23;5.47;;;;;;;1.67;47.68;100218.06;12224662;19;20014;-82